createdAt,value
2022-10-17T00:00:55.249Z,0.00
2022-10-17T00:01:55.272Z,0.00
2022-10-17T00:02:55.226Z,0.00
2022-10-17T00:03:55.208Z,0.00
2022-10-17T00:04:55.195Z,0.00
2022-10-17T00:05:55.186Z,0.00
2022-10-17T00:06:55.329Z,0.00
2022-10-17T00:07:55.158Z,0.00
2022-10-17T00:08:55.152Z,0.00
2022-10-17T00:09:55.129Z,0.00
2022-10-17T00:10:55.118Z,0.00
2022-10-17T00:11:55.119Z,0.00
2022-10-17T00:12:55.089Z,0.00
2022-10-17T00:13:55.079Z,0.00
2022-10-17T00:14:55.060Z,0.00
2022-10-17T00:15:55.072Z,0.00
2022-10-17T00:16:55.031Z,0.00
2022-10-17T00:17:55.024Z,0.00
2022-10-17T00:18:55.001Z,0.00
2022-10-17T00:19:54.991Z,0.00
2022-10-17T00:20:54.982Z,0.00
2022-10-17T00:21:54.990Z,0.00
2022-10-17T00:22:54.954Z,0.00
2022-10-17T00:23:54.941Z,0.00
2022-10-17T00:24:54.931Z,0.00
2022-10-17T00:25:54.912Z,0.00
2022-10-17T00:26:54.921Z,0.00
2022-10-17T00:27:54.883Z,0.00
2022-10-17T00:28:54.937Z,0.00
2022-10-17T00:29:54.853Z,0.00
2022-10-17T00:30:54.854Z,0.00
2022-10-17T00:32:54.823Z,0.00
2022-10-17T00:33:54.811Z,0.00
2022-10-17T00:34:54.794Z,0.00
2022-10-17T00:35:54.774Z,0.00
2022-10-17T00:36:54.784Z,0.00
2022-10-17T00:37:54.754Z,0.00
2022-10-17T00:38:54.745Z,0.00
2022-10-17T00:39:54.724Z,0.00
2022-10-17T00:41:54.715Z,0.00
2022-10-17T00:42:54.689Z,0.00
2022-10-17T00:43:54.673Z,0.00
2022-10-17T00:44:54.656Z,0.00
2022-10-17T00:45:54.646Z,0.00
2022-10-17T00:46:54.654Z,0.00
2022-10-17T00:47:54.616Z,0.00
2022-10-17T00:48:54.618Z,0.00
2022-10-17T00:49:54.640Z,0.00
2022-10-17T00:50:54.604Z,0.00
2022-10-17T00:51:54.569Z,0.00
2022-10-17T00:52:54.558Z,0.00
2022-10-17T00:53:54.537Z,0.00
2022-10-17T00:54:54.528Z,0.00
2022-10-17T00:55:54.509Z,0.00
2022-10-17T00:56:54.518Z,0.00
2022-10-17T00:57:54.478Z,0.00
2022-10-17T00:58:54.525Z,0.00
2022-10-17T00:59:54.461Z,0.00
2022-10-17T01:00:54.460Z,0.00
2022-10-17T01:01:54.449Z,0.00
2022-10-17T01:02:54.419Z,0.00
2022-10-17T01:03:54.407Z,0.00
2022-10-17T01:04:54.401Z,0.00
2022-10-17T01:05:54.380Z,0.00
2022-10-17T01:06:54.393Z,0.00
2022-10-17T01:07:54.350Z,0.00
2022-10-17T01:08:54.342Z,0.00
2022-10-17T01:09:54.329Z,0.00
2022-10-17T01:10:54.350Z,0.00
2022-10-17T01:11:54.304Z,0.00
2022-10-17T01:12:54.292Z,0.00
2022-10-17T01:13:54.277Z,0.00
2022-10-17T01:14:54.263Z,0.00
2022-10-17T01:15:54.263Z,0.00
2022-10-17T01:16:54.233Z,0.00
2022-10-17T01:17:54.222Z,0.00
2022-10-17T01:18:54.214Z,0.00
2022-10-17T01:19:54.195Z,0.00
2022-10-17T01:20:54.200Z,0.00
2022-10-17T01:21:54.164Z,0.00
2022-10-17T01:22:54.161Z,0.00
2022-10-17T01:23:54.144Z,0.00
2022-10-17T01:24:54.135Z,0.00
2022-10-17T01:25:54.125Z,0.00
2022-10-17T01:26:54.105Z,0.00
2022-10-17T01:27:54.084Z,0.00
2022-10-17T01:28:54.076Z,0.00
2022-10-17T01:29:54.067Z,0.00
2022-10-17T01:30:54.066Z,0.00
2022-10-17T01:31:54.035Z,0.00
2022-10-17T01:32:54.026Z,0.00
2022-10-17T01:33:54.006Z,0.00
2022-10-17T01:34:54.022Z,0.00
2022-10-17T01:35:53.996Z,0.00
2022-10-17T01:36:53.968Z,0.00
2022-10-17T01:37:53.958Z,0.00
2022-10-17T01:38:53.936Z,0.00
2022-10-17T01:39:53.930Z,0.00
2022-10-17T01:40:53.927Z,0.00
2022-10-17T01:41:53.901Z,0.00
2022-10-17T01:42:53.888Z,0.00
2022-10-17T01:43:53.867Z,0.00
2022-10-17T01:44:53.867Z,0.00
2022-10-17T01:45:53.860Z,0.00
2022-10-17T01:46:53.864Z,0.00
2022-10-17T01:47:53.818Z,0.00
2022-10-17T01:48:53.808Z,0.00
2022-10-17T01:49:53.789Z,0.00
2022-10-17T01:50:54.810Z,0.00
2022-10-17T01:51:53.768Z,0.00
2022-10-17T01:52:53.749Z,0.00
2022-10-17T01:53:53.740Z,0.00
2022-10-17T01:54:53.728Z,0.00
2022-10-17T01:55:53.785Z,0.00
2022-10-17T01:56:53.702Z,0.00
2022-10-17T01:57:53.688Z,0.00
2022-10-17T01:58:53.680Z,0.00
2022-10-17T01:59:53.661Z,0.00
2022-10-17T02:00:53.662Z,0.00
2022-10-17T02:01:53.656Z,0.00
2022-10-17T02:02:53.623Z,0.00
2022-10-17T02:03:53.601Z,0.00
2022-10-17T02:04:53.626Z,0.00
2022-10-17T02:05:53.592Z,0.00
2022-10-17T02:06:53.570Z,0.00
2022-10-17T02:07:53.553Z,0.00
2022-10-17T02:08:53.542Z,0.00
2022-10-17T02:09:53.522Z,0.00
2022-10-17T02:10:53.532Z,0.00
2022-10-17T02:11:53.503Z,0.00
2022-10-17T02:12:53.491Z,0.00
2022-10-17T02:13:53.476Z,0.00
2022-10-17T02:14:53.455Z,0.00
2022-10-17T02:15:53.537Z,0.00
2022-10-17T02:16:53.455Z,0.00
2022-10-17T02:17:53.435Z,0.00
2022-10-17T02:18:53.405Z,0.00
2022-10-17T02:19:53.385Z,0.00
2022-10-17T02:20:53.396Z,0.00
2022-10-17T02:21:53.368Z,0.00
2022-10-17T02:22:53.396Z,0.00
2022-10-17T02:23:53.346Z,0.00
2022-10-17T02:24:53.327Z,0.00
2022-10-17T02:25:53.342Z,0.00
2022-10-17T02:26:53.306Z,0.00
2022-10-17T02:27:53.287Z,0.00
2022-10-17T02:28:53.374Z,0.00
2022-10-17T02:29:53.257Z,0.00
2022-10-17T02:30:53.271Z,0.00
2022-10-17T02:31:53.236Z,0.00
2022-10-17T02:32:53.246Z,0.00
2022-10-17T02:33:53.879Z,0.00
2022-10-17T02:34:53.188Z,0.00
2022-10-17T02:35:53.189Z,0.00
2022-10-17T02:36:53.169Z,0.00
2022-10-17T02:37:53.187Z,0.00
2022-10-17T02:38:53.200Z,0.00
2022-10-17T02:39:53.119Z,0.00
2022-10-17T02:40:53.130Z,0.00
2022-10-17T02:41:53.098Z,0.00
2022-10-17T02:42:53.091Z,0.00
2022-10-17T02:43:53.071Z,0.00
2022-10-17T02:44:53.061Z,0.00
2022-10-17T02:45:53.059Z,0.00
2022-10-17T02:46:53.032Z,0.00
2022-10-17T02:47:53.019Z,0.00
2022-10-17T02:48:53.001Z,0.00
2022-10-17T02:49:52.981Z,0.00
2022-10-17T02:50:53.001Z,0.00
2022-10-17T02:51:52.961Z,0.00
2022-10-17T02:52:52.953Z,0.00
2022-10-17T02:53:52.932Z,0.00
2022-10-17T02:54:52.926Z,0.00
2022-10-17T02:55:52.923Z,0.00
2022-10-17T02:56:52.901Z,0.00
2022-10-17T02:57:52.883Z,0.00
2022-10-17T02:58:52.873Z,0.00
2022-10-17T02:59:52.855Z,0.00
2022-10-17T03:00:52.921Z,0.00
2022-10-17T03:01:52.824Z,0.00
2022-10-17T03:02:52.823Z,0.00
2022-10-17T03:03:52.805Z,0.00
2022-10-17T03:04:52.807Z,0.00
2022-10-17T03:05:52.775Z,0.00
2022-10-17T03:06:52.766Z,0.00
2022-10-17T03:07:52.745Z,0.00
2022-10-17T03:08:52.738Z,0.00
2022-10-17T03:09:52.737Z,0.00
2022-10-17T03:10:52.714Z,0.00
2022-10-17T03:11:52.697Z,0.00
2022-10-17T03:12:52.688Z,0.00
2022-10-17T03:13:52.667Z,0.00
2022-10-17T03:14:52.667Z,0.00
2022-10-17T03:15:52.636Z,0.00
2022-10-17T03:16:52.628Z,0.00
2022-10-17T03:17:52.608Z,0.00
2022-10-17T03:18:52.609Z,0.00
2022-10-17T03:19:52.599Z,0.00
2022-10-17T03:20:52.578Z,0.00
2022-10-17T03:21:52.558Z,0.00
2022-10-17T03:22:52.548Z,0.00
2022-10-17T03:23:52.536Z,0.00
2022-10-17T03:24:52.539Z,0.00
2022-10-17T03:25:52.509Z,0.00
2022-10-17T03:26:52.509Z,0.00
2022-10-17T03:27:52.480Z,0.00
2022-10-17T03:28:54.519Z,0.00
2022-10-17T03:29:52.467Z,0.00
2022-10-17T03:30:52.447Z,0.00
2022-10-17T03:31:52.420Z,0.00
2022-10-17T03:32:52.420Z,0.00
2022-10-17T03:33:52.401Z,0.00
2022-10-17T03:34:52.407Z,0.00
2022-10-17T03:35:52.374Z,0.00
2022-10-17T03:36:52.361Z,0.00
2022-10-17T03:37:52.341Z,0.00
2022-10-17T03:38:52.343Z,0.00
2022-10-17T03:39:52.333Z,0.00
2022-10-17T03:40:52.323Z,0.00
2022-10-17T03:41:52.292Z,0.00
2022-10-17T03:42:52.292Z,0.00
2022-10-17T03:43:52.270Z,0.00
2022-10-17T03:44:52.274Z,0.00
2022-10-17T03:45:52.241Z,0.00
2022-10-17T03:46:52.234Z,0.00
2022-10-17T03:47:52.215Z,0.00
2022-10-17T03:48:52.204Z,0.00
2022-10-17T03:49:52.195Z,0.00
2022-10-17T03:50:52.176Z,0.00
2022-10-17T03:51:52.154Z,0.00
2022-10-17T03:52:52.155Z,0.00
2022-10-17T03:53:52.135Z,0.00
2022-10-17T03:54:52.137Z,0.00
2022-10-17T03:55:52.107Z,0.00
2022-10-17T03:56:52.163Z,0.00
2022-10-17T03:57:52.076Z,0.00
2022-10-17T03:58:52.073Z,0.00
2022-10-17T03:59:52.067Z,0.00
2022-10-17T04:00:52.077Z,0.00
2022-10-17T04:01:52.026Z,0.00
2022-10-17T04:02:52.016Z,0.00
2022-10-17T04:03:51.997Z,0.00
2022-10-17T04:04:52.007Z,0.00
2022-10-17T04:05:51.975Z,0.00
2022-10-17T04:06:51.967Z,0.00
2022-10-17T04:07:51.946Z,0.00
2022-10-17T04:08:51.938Z,0.00
2022-10-17T04:09:51.936Z,0.00
2022-10-17T04:10:51.911Z,0.00
2022-10-17T04:11:51.889Z,0.00
2022-10-17T04:12:51.881Z,0.00
2022-10-17T04:13:51.868Z,0.00
2022-10-17T04:14:51.869Z,0.00
2022-10-17T04:15:51.843Z,0.00
2022-10-17T04:16:51.830Z,0.00
2022-10-17T04:17:51.854Z,0.00
2022-10-17T04:18:51.808Z,0.00
2022-10-17T04:19:51.800Z,0.00
2022-10-17T04:20:51.784Z,0.00
2022-10-17T04:21:51.778Z,0.00
2022-10-17T04:22:51.750Z,0.00
2022-10-17T04:23:51.731Z,0.00
2022-10-17T04:24:51.738Z,0.00
2022-10-17T04:25:51.711Z,0.00
2022-10-17T04:26:51.693Z,0.00
2022-10-17T04:27:51.672Z,0.00
2022-10-17T04:28:51.676Z,0.00
2022-10-17T04:29:51.699Z,0.00
2022-10-17T04:30:53.994Z,0.00
2022-10-17T04:31:51.633Z,0.00
2022-10-17T04:32:51.614Z,0.00
2022-10-17T04:33:51.603Z,0.00
2022-10-17T04:34:51.607Z,0.00
2022-10-17T04:35:51.583Z,0.00
2022-10-17T04:36:51.563Z,0.00
2022-10-17T04:37:51.553Z,0.00
2022-10-17T04:38:51.541Z,0.00
2022-10-17T04:39:51.548Z,0.00
2022-10-17T04:40:51.516Z,0.00
2022-10-17T04:41:51.505Z,0.00
2022-10-17T04:42:51.486Z,0.00
2022-10-17T04:43:51.635Z,0.00
2022-10-17T04:44:51.465Z,0.00
2022-10-17T04:45:51.436Z,0.00
2022-10-17T04:46:51.434Z,0.00
2022-10-17T04:47:51.416Z,0.00
2022-10-17T04:48:51.403Z,0.00
2022-10-17T04:49:51.406Z,0.00
2022-10-17T04:52:01.191Z,0.00
2022-10-17T04:53:01.162Z,0.00
2022-10-17T04:54:01.140Z,0.00
2022-10-17T04:55:01.151Z,0.00
2022-10-17T04:56:01.120Z,0.00
2022-10-17T04:57:01.107Z,0.00
2022-10-17T04:58:01.097Z,0.00
2022-10-17T04:59:01.081Z,0.00
2022-10-17T05:00:01.128Z,0.00
2022-10-17T05:01:01.111Z,0.00
2022-10-17T05:02:01.039Z,0.00
2022-10-17T05:03:01.022Z,0.00
2022-10-17T05:04:01.009Z,0.00
2022-10-17T05:05:01.021Z,0.00
2022-10-17T05:06:00.982Z,0.00
2022-10-17T05:07:00.971Z,0.00
2022-10-17T05:08:00.963Z,0.00
2022-10-17T05:09:00.945Z,0.00
2022-10-17T05:10:00.950Z,0.00
2022-10-17T05:11:00.926Z,0.00
2022-10-17T05:12:00.904Z,0.00
2022-10-17T05:13:00.896Z,0.00
2022-10-17T05:14:00.875Z,0.00
2022-10-17T05:15:00.883Z,0.00
2022-10-17T05:16:00.852Z,0.00
2022-10-17T05:17:00.834Z,0.00
2022-10-17T05:18:00.825Z,0.00
2022-10-17T05:19:00.814Z,0.00
2022-10-17T05:20:00.814Z,0.00
2022-10-17T05:21:00.785Z,0.00
2022-10-17T05:22:00.767Z,0.00
2022-10-17T05:23:00.761Z,0.00
2022-10-17T05:24:00.746Z,0.00
2022-10-17T05:25:00.764Z,0.00
2022-10-17T05:26:00.718Z,0.00
2022-10-17T05:27:00.708Z,0.00
2022-10-17T05:28:00.694Z,0.00
2022-10-17T05:29:00.743Z,0.00
2022-10-17T05:30:00.665Z,0.00
2022-10-17T05:31:00.668Z,0.00
2022-10-17T05:33:00.627Z,0.00
2022-10-17T05:34:00.608Z,0.00
2022-10-17T05:35:00.598Z,4.00
2022-10-17T05:36:00.598Z,4.00
2022-10-17T05:37:00.570Z,4.00
2022-10-17T05:38:00.563Z,0.00
2022-10-17T05:39:00.549Z,4.00
2022-10-17T05:40:00.529Z,4.00
2022-10-17T05:41:00.539Z,0.00
2022-10-17T05:42:00.499Z,4.00
2022-10-17T05:43:00.498Z,4.00
2022-10-17T05:44:03.173Z,8.00
2022-10-17T05:45:01.471Z,8.00
2022-10-17T05:46:00.472Z,8.00
2022-10-17T05:47:00.440Z,8.00
2022-10-17T05:48:00.420Z,12.00
2022-10-17T05:49:00.421Z,12.00
2022-10-17T05:50:00.400Z,16.00
2022-10-17T05:51:00.402Z,16.00
2022-10-17T05:52:00.376Z,16.00
2022-10-17T05:53:00.362Z,24.00
2022-10-17T05:54:00.345Z,24.00
2022-10-17T05:55:00.333Z,28.00
2022-10-17T05:56:00.333Z,28.00
2022-10-17T05:57:00.304Z,36.00
2022-10-17T05:58:00.293Z,36.00
2022-10-17T05:59:01.196Z,40.00
2022-10-17T06:00:00.264Z,40.00
2022-10-17T06:01:00.273Z,48.00
2022-10-17T06:02:00.306Z,52.00
2022-10-17T06:03:00.226Z,56.00
2022-10-17T06:04:00.214Z,64.00
2022-10-17T06:05:00.206Z,68.00
2022-10-17T06:06:00.263Z,76.00
2022-10-17T06:07:00.184Z,84.00
2022-10-17T06:08:01.980Z,88.00
2022-10-17T06:09:00.146Z,96.00
2022-10-17T06:10:00.175Z,104.00
2022-10-17T06:11:00.135Z,112.00
2022-10-17T06:12:00.106Z,120.00
2022-10-17T06:13:00.098Z,132.00
2022-10-17T06:14:00.081Z,140.00
2022-10-17T06:15:00.111Z,152.00
2022-10-17T06:16:00.050Z,160.00
2022-10-17T06:17:00.036Z,172.00
2022-10-17T06:18:00.028Z,180.00
2022-10-17T06:19:00.009Z,192.00
2022-10-17T06:20:00.007Z,196.00
2022-10-17T06:20:59.989Z,204.00
2022-10-17T06:21:59.967Z,208.00
2022-10-17T06:22:59.958Z,208.00
2022-10-17T06:23:59.940Z,212.00
2022-10-17T06:24:59.947Z,224.00
2022-10-17T06:25:59.918Z,232.00
2022-10-17T06:26:59.901Z,248.00
2022-10-17T06:27:59.897Z,268.00
2022-10-17T06:28:59.990Z,284.00
2022-10-17T06:29:59.880Z,296.00
2022-10-17T06:30:59.857Z,312.00
2022-10-17T06:31:59.830Z,320.00
2022-10-17T06:32:59.821Z,328.00
2022-10-17T06:33:59.811Z,340.00
2022-10-17T06:34:59.824Z,356.00
2022-10-17T06:35:59.781Z,372.00
2022-10-17T06:36:59.769Z,384.00
2022-10-17T06:37:59.759Z,400.00
2022-10-17T06:38:59.744Z,416.00
2022-10-17T06:39:59.732Z,424.00
2022-10-17T06:40:59.732Z,432.00
2022-10-17T06:41:59.702Z,432.00
2022-10-17T06:42:59.683Z,432.00
2022-10-17T06:43:59.680Z,428.00
2022-10-17T06:44:59.663Z,420.00
2022-10-17T06:45:59.673Z,420.00
2022-10-17T06:46:59.640Z,420.00
2022-10-17T06:47:59.631Z,424.00
2022-10-17T06:48:59.608Z,428.00
2022-10-17T06:49:59.614Z,428.00
2022-10-17T06:50:59.584Z,448.00
2022-10-17T06:51:59.573Z,464.00
2022-10-17T06:52:59.580Z,484.00
2022-10-17T06:53:59.545Z,504.00
2022-10-17T06:54:59.548Z,528.00
2022-10-17T06:55:59.523Z,544.00
2022-10-17T06:56:59.496Z,568.00
2022-10-17T06:57:59.495Z,596.00
2022-10-17T06:58:59.475Z,628.00
2022-10-17T06:59:59.478Z,656.00
2022-10-17T07:01:00.941Z,692.00
2022-10-17T07:01:59.437Z,724.00
2022-10-17T07:02:59.416Z,752.00
2022-10-17T07:03:59.406Z,764.00
2022-10-17T07:04:59.407Z,776.00
2022-10-17T07:05:59.386Z,776.00
2022-10-17T07:07:59.357Z,792.00
2022-10-17T07:08:59.339Z,800.00
2022-10-17T07:09:59.346Z,816.00
2022-10-17T07:10:59.308Z,828.00
2022-10-17T07:11:59.308Z,836.00
2022-10-17T07:12:59.288Z,852.00
2022-10-17T07:13:59.280Z,856.00
2022-10-17T07:14:59.270Z,872.00
2022-10-17T07:15:59.255Z,888.00
2022-10-17T07:16:59.239Z,912.00
2022-10-17T07:17:59.220Z,936.00
2022-10-17T07:18:59.200Z,968.00
2022-10-17T07:19:59.211Z,1000.00
2022-10-17T07:20:59.180Z,1036.00
2022-10-17T07:21:59.170Z,1072.00
2022-10-17T07:22:59.150Z,1112.00
2022-10-17T07:23:59.141Z,1112.00
2022-10-17T07:24:59.131Z,1092.00
2022-10-17T07:25:59.132Z,1092.00
2022-10-17T07:26:59.099Z,1136.00
2022-10-17T07:27:59.082Z,1200.00
2022-10-17T07:28:59.143Z,1252.00
2022-10-17T07:29:59.070Z,1288.00
2022-10-17T07:30:59.062Z,1316.00
2022-10-17T07:31:59.033Z,1336.00
2022-10-17T07:32:59.014Z,1356.00
2022-10-17T07:33:59.011Z,1336.00
2022-10-17T07:34:58.994Z,1288.00
2022-10-17T07:35:59.007Z,1212.00
2022-10-17T07:36:58.964Z,1124.00
2022-10-17T07:37:58.954Z,1044.00
2022-10-17T07:38:58.934Z,984.00
2022-10-17T07:39:58.934Z,956.00
2022-10-17T07:40:58.934Z,964.00
2022-10-17T07:41:58.913Z,1000.00
2022-10-17T07:42:58.898Z,1036.00
2022-10-17T07:43:58.875Z,1072.00
2022-10-17T07:44:58.855Z,1112.00
2022-10-17T07:45:58.866Z,1168.00
2022-10-17T07:46:58.835Z,1216.00
2022-10-17T07:47:58.830Z,1248.00
2022-10-17T07:48:58.808Z,1260.00
2022-10-17T07:49:58.824Z,1260.00
2022-10-17T07:50:58.786Z,1272.00
2022-10-17T07:51:58.780Z,1316.00
2022-10-17T07:52:58.759Z,1288.00
2022-10-17T07:53:58.748Z,1268.00
2022-10-17T07:54:58.749Z,1256.00
2022-10-17T07:55:58.721Z,1232.00
2022-10-17T07:56:58.708Z,1228.00
2022-10-17T07:57:58.689Z,1240.00
2022-10-17T07:58:59.864Z,1264.00
2022-10-17T07:59:58.680Z,1300.00
2022-10-17T08:00:58.757Z,1352.00
2022-10-17T08:01:58.640Z,1432.00
2022-10-17T08:02:58.619Z,1572.00
2022-10-17T08:03:58.620Z,1732.00
2022-10-17T08:04:58.621Z,1892.00
2022-10-17T08:05:58.592Z,2072.00
2022-10-17T08:07:11.678Z,2252.00
2022-10-17T08:07:59.560Z,2440.00
2022-10-17T08:08:58.542Z,2552.00
2022-10-17T08:09:58.634Z,2468.00
2022-10-17T08:10:58.533Z,2364.00
2022-10-17T08:11:58.512Z,2404.00
2022-10-17T08:12:58.492Z,2356.00
2022-10-17T08:13:58.486Z,2216.00
2022-10-17T08:14:58.473Z,2096.00
2022-10-17T08:15:58.480Z,2012.00
2022-10-17T08:16:58.441Z,2036.00
2022-10-17T08:17:58.431Z,2144.00
2022-10-17T08:18:58.437Z,2100.00
2022-10-17T08:19:58.404Z,2488.00
2022-10-17T08:21:00.166Z,3140.00
2022-10-17T08:21:58.375Z,3148.00
2022-10-17T08:22:58.363Z,2980.00
2022-10-17T08:23:58.362Z,2508.00
2022-10-17T08:24:58.355Z,2148.00
2022-10-17T08:25:58.330Z,1964.00
2022-10-17T08:26:58.309Z,1908.00
2022-10-17T08:27:58.330Z,1996.00
2022-10-17T08:28:58.323Z,2076.00
2022-10-17T08:29:58.266Z,2024.00
2022-10-17T08:30:58.266Z,2052.00
2022-10-17T08:32:01.128Z,2180.00
2022-10-17T08:32:58.227Z,2240.00
2022-10-17T08:33:58.217Z,2276.00
2022-10-17T08:34:58.197Z,2212.00
2022-10-17T08:35:58.209Z,2156.00
2022-10-17T08:36:58.190Z,2064.00
2022-10-17T08:37:58.159Z,2012.00
2022-10-17T08:38:58.150Z,2080.00
2022-10-17T08:39:58.138Z,2328.00
2022-10-17T08:40:58.139Z,2652.00
2022-10-17T08:41:58.110Z,3024.00
2022-10-17T08:42:58.091Z,3152.00
2022-10-17T08:43:58.080Z,3076.00
2022-10-17T08:44:58.069Z,2832.00
2022-10-17T08:45:58.071Z,2708.00
2022-10-17T08:46:58.031Z,2876.00
2022-10-17T08:47:58.031Z,3036.00
2022-10-17T08:48:58.012Z,3088.00
2022-10-17T08:49:58.002Z,3224.00
2022-10-17T08:50:58.001Z,3088.00
2022-10-17T08:51:57.972Z,3028.00
2022-10-17T08:52:57.954Z,2964.00
2022-10-17T08:53:57.950Z,2780.00
2022-10-17T08:54:57.933Z,2480.00
2022-10-17T08:55:57.934Z,2452.00
2022-10-17T08:56:57.903Z,2788.00
2022-10-17T08:57:57.894Z,3096.00
2022-10-17T08:58:57.873Z,3308.00
2022-10-17T08:59:57.866Z,3396.00
2022-10-17T09:00:57.864Z,3720.00
2022-10-17T09:01:57.844Z,3872.00
2022-10-17T09:02:57.858Z,3632.00
2022-10-17T09:03:57.814Z,3152.00
2022-10-17T09:04:57.808Z,3096.00
2022-10-17T09:05:57.807Z,3540.00
2022-10-17T09:06:57.774Z,3584.00
2022-10-17T09:07:57.765Z,3712.00
2022-10-17T09:08:57.746Z,4400.00
2022-10-17T09:09:57.736Z,4192.00
2022-10-17T09:10:57.736Z,4592.00
2022-10-17T09:11:57.713Z,5384.00
2022-10-17T09:12:57.686Z,5424.00
2022-10-17T09:13:57.688Z,5060.00
2022-10-17T09:14:57.667Z,4892.00
2022-10-17T09:15:57.678Z,4620.00
2022-10-17T09:16:57.641Z,4508.00
2022-10-17T09:17:57.629Z,4404.00
2022-10-17T09:18:57.617Z,4232.00
2022-10-17T09:19:57.607Z,4100.00
2022-10-17T09:20:57.608Z,3680.00
2022-10-17T09:21:57.579Z,3616.00
2022-10-17T09:24:09.156Z,3608.00
2022-10-17T09:24:58.531Z,3532.00
2022-10-17T09:25:57.540Z,3548.00
2022-10-17T09:26:57.510Z,3584.00
2022-10-17T09:27:57.500Z,3472.00
2022-10-17T09:28:57.538Z,3132.00
2022-10-17T09:29:57.472Z,2624.00
2022-10-17T09:30:57.476Z,2084.00
2022-10-17T09:32:57.431Z,1808.00
2022-10-17T09:33:57.414Z,1968.00
2022-10-17T09:34:57.401Z,1988.00
2022-10-17T09:35:57.404Z,1836.00
2022-10-17T09:36:57.373Z,1608.00
2022-10-17T09:37:57.371Z,1416.00
2022-10-17T09:38:57.343Z,1312.00
2022-10-17T09:39:57.343Z,1560.00
2022-10-17T09:40:57.397Z,1988.00
2022-10-17T09:41:57.314Z,2276.00
2022-10-17T09:42:57.295Z,2468.00
2022-10-17T09:43:57.293Z,2548.00
2022-10-17T09:44:57.265Z,2424.00
2022-10-17T09:45:57.285Z,2464.00
2022-10-17T09:46:57.237Z,2716.00
2022-10-17T09:47:59.502Z,3008.00
2022-10-17T09:48:57.239Z,3036.00
2022-10-17T09:49:57.207Z,2520.00
2022-10-17T09:51:08.304Z,2072.00
2022-10-17T09:51:58.178Z,1788.00
2022-10-17T09:52:57.166Z,1784.00
2022-10-17T09:53:57.157Z,1696.00
2022-10-17T09:54:57.140Z,1548.00
2022-10-17T09:55:57.150Z,1516.00
2022-10-17T09:56:57.108Z,1536.00
2022-10-17T09:57:57.099Z,1488.00
2022-10-17T09:58:57.085Z,1696.00
2022-10-17T09:59:57.069Z,1892.00
2022-10-17T10:00:57.127Z,1844.00
2022-10-17T10:01:57.048Z,1560.00
2022-10-17T10:02:57.034Z,1232.00
2022-10-17T10:03:57.020Z,1304.00
2022-10-17T10:05:04.219Z,1268.00
2022-10-17T10:05:58.010Z,1000.00
2022-10-17T10:06:56.972Z,788.00
2022-10-17T10:07:56.971Z,696.00
2022-10-17T10:08:56.952Z,676.00
2022-10-17T10:09:56.946Z,688.00
2022-10-17T10:10:56.942Z,680.00
2022-10-17T10:11:56.925Z,712.00
2022-10-17T10:12:56.894Z,732.00
2022-10-17T10:13:56.893Z,768.00
2022-10-17T10:14:56.874Z,884.00
2022-10-17T10:15:56.885Z,1072.00
2022-10-17T10:16:56.843Z,1276.00
2022-10-17T10:17:56.834Z,1720.00
2022-10-17T10:18:56.814Z,1848.00
2022-10-17T10:19:56.805Z,1720.00
2022-10-17T10:20:56.806Z,1652.00
2022-10-17T10:21:56.794Z,1852.00
2022-10-17T10:22:58.262Z,2108.00
2022-10-17T10:23:56.756Z,2216.00
2022-10-17T10:24:56.736Z,2508.00
2022-10-17T10:25:56.747Z,2564.00
2022-10-17T10:26:56.713Z,2424.00
2022-10-17T10:27:59.340Z,2256.00
2022-10-17T10:28:56.688Z,2104.00
2022-10-17T10:29:56.687Z,1920.00
2022-10-17T10:30:56.678Z,1640.00
2022-10-17T10:31:56.649Z,1560.00
2022-10-17T10:32:56.627Z,1580.00
2022-10-17T10:33:57.586Z,1592.00
2022-10-17T10:34:56.609Z,1620.00
2022-10-17T10:35:56.619Z,1576.00
2022-10-17T10:36:56.581Z,1636.00
2022-10-17T10:37:56.570Z,1756.00
2022-10-17T10:38:57.155Z,1860.00
2022-10-17T10:39:56.546Z,1792.00
2022-10-17T10:40:56.540Z,1844.00
2022-10-17T10:41:56.519Z,1940.00
2022-10-17T10:42:57.740Z,2236.00
2022-10-17T10:43:56.514Z,2144.00
2022-10-17T10:44:56.472Z,1908.00
2022-10-17T10:45:56.482Z,1672.00
2022-10-17T10:46:56.449Z,1388.00
2022-10-17T10:47:56.442Z,1312.00
2022-10-17T10:48:56.439Z,1472.00
2022-10-17T10:49:56.412Z,1604.00
2022-10-17T10:51:00.377Z,1716.00
2022-10-17T10:52:03.422Z,1644.00
2022-10-17T10:52:56.374Z,1444.00
2022-10-17T10:53:56.353Z,1176.00
2022-10-17T10:54:56.350Z,1032.00
2022-10-17T10:55:56.343Z,1032.00
2022-10-17T10:56:56.316Z,1096.00
2022-10-17T10:57:56.306Z,1192.00
2022-10-17T10:58:56.295Z,1280.00
2022-10-17T10:59:56.473Z,1232.00
2022-10-17T11:00:56.357Z,1268.00
2022-10-17T11:01:56.244Z,1384.00
2022-10-17T11:02:56.236Z,1384.00
2022-10-17T11:03:56.223Z,1336.00
2022-10-17T11:04:56.225Z,1348.00
2022-10-17T11:05:56.196Z,1324.00
2022-10-17T11:06:56.186Z,1480.00
2022-10-17T11:07:56.173Z,1624.00
2022-10-17T11:08:56.164Z,1584.00
2022-10-17T11:09:56.158Z,1516.00
2022-10-17T11:10:56.134Z,1508.00
2022-10-17T11:11:56.127Z,1532.00
2022-10-17T11:12:56.123Z,1656.00
2022-10-17T11:13:56.090Z,1928.00
2022-10-17T11:14:56.103Z,2624.00
2022-10-17T11:15:56.058Z,3836.00
2022-10-17T11:16:56.049Z,3784.00
2022-10-17T11:17:56.040Z,6308.00
2022-10-17T11:18:56.019Z,3308.00
2022-10-17T11:19:56.029Z,3304.00
2022-10-17T11:20:56.001Z,2816.00
2022-10-17T11:21:55.981Z,2416.00
2022-10-17T11:22:55.970Z,1928.00
2022-10-17T11:23:55.950Z,1700.00
2022-10-17T11:24:55.961Z,1580.00
2022-10-17T11:25:55.929Z,1540.00
2022-10-17T11:26:55.921Z,1584.00
2022-10-17T11:27:57.248Z,1444.00
2022-10-17T11:28:55.984Z,1264.00
2022-10-17T11:29:55.892Z,1260.00
2022-10-17T11:30:55.864Z,1316.00
2022-10-17T11:31:55.851Z,1500.00
2022-10-17T11:32:55.842Z,1784.00
2022-10-17T11:33:55.826Z,2184.00
2022-10-17T11:34:55.833Z,2392.00
2022-10-17T11:35:58.310Z,2296.00
2022-10-17T11:36:55.787Z,2480.00
2022-10-17T11:37:55.783Z,3064.00
2022-10-17T11:38:55.762Z,3332.00
2022-10-17T11:39:55.765Z,3252.00
2022-10-17T11:40:55.734Z,3508.00
2022-10-17T11:41:55.715Z,3836.00
2022-10-17T11:42:55.707Z,3712.00
2022-10-17T11:43:55.688Z,3268.00
2022-10-17T11:44:55.697Z,2924.00
2022-10-17T11:45:55.666Z,2704.00
2022-10-17T11:46:55.657Z,2400.00
2022-10-17T11:47:55.638Z,2416.00
2022-10-17T11:48:55.629Z,2524.00
2022-10-17T11:49:55.829Z,2740.00
2022-10-17T11:52:01.132Z,2632.00
2022-10-17T11:52:57.229Z,2076.00
2022-10-17T11:53:55.556Z,1824.00
2022-10-17T11:54:55.561Z,1608.00
2022-10-17T11:55:55.529Z,1688.00
2022-10-17T11:56:55.520Z,1764.00
2022-10-17T11:57:55.501Z,1764.00
2022-10-17T11:58:55.490Z,1544.00
2022-10-17T11:59:55.499Z,1232.00
2022-10-17T12:00:55.477Z,1076.00
2022-10-17T12:01:55.452Z,1120.00
2022-10-17T12:02:55.441Z,1108.00
2022-10-17T12:03:55.453Z,1100.00
2022-10-17T12:04:55.495Z,1076.00
2022-10-17T12:05:55.393Z,1060.00
2022-10-17T12:06:55.384Z,1032.00
2022-10-17T12:07:55.373Z,948.00
2022-10-17T12:08:55.361Z,928.00
2022-10-17T12:09:55.361Z,1168.00
2022-10-17T12:10:55.334Z,1192.00
2022-10-17T12:11:55.322Z,1100.00
2022-10-17T12:12:55.313Z,952.00
2022-10-17T12:13:55.288Z,864.00
2022-10-17T12:14:55.294Z,856.00
2022-10-17T12:15:55.265Z,776.00
2022-10-17T12:16:55.256Z,748.00
2022-10-17T12:17:55.236Z,840.00
2022-10-17T12:18:55.226Z,828.00
2022-10-17T12:19:55.226Z,844.00
2022-10-17T12:20:55.196Z,864.00
2022-10-17T12:21:55.187Z,964.00
2022-10-17T12:22:55.176Z,1108.00
2022-10-17T12:23:55.157Z,1348.00
2022-10-17T12:24:55.160Z,1180.00
2022-10-17T12:25:57.102Z,996.00
2022-10-17T12:26:56.491Z,776.00
2022-10-17T12:27:55.099Z,644.00
2022-10-17T12:28:55.144Z,600.00
2022-10-17T12:29:55.099Z,624.00
2022-10-17T12:30:55.068Z,600.00
2022-10-17T12:31:55.051Z,564.00
2022-10-17T12:33:05.674Z,572.00
2022-10-17T12:33:56.020Z,528.00
2022-10-17T12:34:55.011Z,488.00
2022-10-17T12:35:55.020Z,520.00
2022-10-17T12:36:54.988Z,492.00
2022-10-17T12:37:58.644Z,456.00
2022-10-17T12:38:54.961Z,392.00
2022-10-17T12:39:54.942Z,336.00
2022-10-17T12:40:54.973Z,296.00
2022-10-17T12:41:54.913Z,320.00
2022-10-17T12:42:54.910Z,384.00
2022-10-17T12:43:54.906Z,424.00
2022-10-17T12:44:54.883Z,436.00
2022-10-17T12:45:54.880Z,468.00
2022-10-17T12:46:54.854Z,480.00
2022-10-17T12:47:54.833Z,500.00
2022-10-17T12:48:54.825Z,548.00
2022-10-17T12:49:56.677Z,588.00